createdAt,value
2018-01-26T00:01:12.663Z,70.57
2018-01-26T00:03:41.176Z,71.27
2018-01-26T00:06:10.547Z,72.11
2018-01-26T00:08:39.052Z,72.17
2018-01-26T00:11:07.560Z,71.84
2018-01-26T00:13:36.323Z,71.10
2018-01-26T00:16:05.665Z,70.82
2018-01-26T00:18:34.227Z,71.82
2018-01-26T00:21:03.822Z,72.51
2018-01-26T00:23:33.087Z,71.64
2018-01-26T00:26:01.646Z,70.76
2018-01-26T00:28:30.187Z,72.07
2018-01-26T00:30:59.443Z,72.15
2018-01-26T00:33:27.939Z,71.20
2018-01-26T00:35:56.548Z,69.78
2018-01-26T00:38:25.867Z,70.00
2018-01-26T00:40:55.122Z,70.63
2018-01-26T00:43:23.899Z,70.33
2018-01-26T00:45:52.391Z,71.31
2018-01-26T00:48:20.887Z,70.05
2018-01-26T00:50:49.499Z,70.85
2018-01-26T00:53:18.810Z,71.88
2018-01-26T00:55:47.363Z,70.41
2018-01-26T00:58:16.730Z,70.39
2018-01-26T01:00:45.264Z,71.69
2018-01-26T01:03:14.583Z,71.09
2018-01-26T01:05:43.139Z,71.60
2018-01-26T01:08:12.461Z,71.61
2018-01-26T01:10:41.007Z,71.12
2018-01-26T01:13:10.510Z,71.19
2018-01-26T01:15:39.000Z,70.89
2018-01-26T01:18:08.267Z,71.13
2018-01-26T01:20:36.830Z,70.57
2018-01-26T01:23:05.331Z,69.73
2018-01-26T01:25:33.843Z,69.24
2018-01-26T01:28:02.545Z,70.19
2018-01-26T01:30:31.910Z,70.41
2018-01-26T01:33:00.407Z,71.56
2018-01-26T01:35:28.953Z,72.95
2018-01-26T01:37:57.507Z,72.71
2018-01-26T01:40:26.007Z,71.77
2018-01-26T01:42:54.648Z,69.88
2018-01-26T01:45:23.150Z,71.74
2018-01-26T01:47:51.704Z,70.50
2018-01-26T01:50:20.266Z,70.55
2018-01-26T01:52:48.825Z,69.95
2018-01-26T01:55:17.379Z,70.87
2018-01-26T01:57:46.019Z,71.49
2018-01-26T02:00:14.523Z,71.27
2018-01-26T02:02:43.028Z,72.31
2018-01-26T02:05:12.404Z,71.47
2018-01-26T02:07:40.957Z,71.17
2018-01-26T02:10:09.458Z,71.47
2018-01-26T02:12:37.998Z,71.24
2018-01-26T02:15:06.499Z,71.24
2018-01-26T02:17:34.989Z,70.38
2018-01-26T02:20:03.713Z,69.53
2018-01-26T02:22:32.976Z,69.24
2018-01-26T02:25:01.554Z,69.69
2018-01-26T02:27:30.475Z,70.60
2018-01-26T02:29:58.971Z,69.97
2018-01-26T02:32:28.220Z,70.49
2018-01-26T02:34:56.816Z,70.20
2018-01-26T02:37:25.315Z,69.62
2018-01-26T02:39:53.819Z,70.26
2018-01-26T02:42:23.575Z,70.75
2018-01-26T02:44:52.140Z,70.89
2018-01-26T02:47:20.642Z,70.34
2018-01-26T02:49:49.643Z,72.68
2018-01-26T02:52:18.143Z,71.62
2018-01-26T02:54:46.647Z,72.59
2018-01-26T02:57:16.138Z,72.40
2018-01-26T02:59:44.632Z,71.35
2018-01-26T03:02:13.896Z,70.21
2018-01-26T03:04:42.439Z,70.97
2018-01-26T03:07:10.935Z,70.18
2018-01-26T03:09:39.435Z,69.57
2018-01-26T03:12:08.075Z,70.03
2018-01-26T03:14:37.331Z,70.16
2018-01-26T03:17:05.831Z,71.93
2018-01-26T03:19:35.375Z,72.42
2018-01-26T03:22:03.944Z,71.83
2018-01-26T03:24:33.206Z,71.61
2018-01-26T03:27:01.749Z,71.02
2018-01-26T03:29:30.251Z,71.36
2018-01-26T03:31:58.803Z,71.13
2018-01-26T03:34:27.622Z,71.64
2018-01-26T03:36:56.172Z,71.67
2018-01-26T03:39:24.724Z,71.39
2018-01-26T03:41:53.326Z,71.82
2018-01-26T03:44:22.580Z,71.96
2018-01-26T03:46:51.115Z,71.91
2018-01-26T03:49:20.431Z,71.39
2018-01-26T03:51:48.936Z,71.02
2018-01-26T03:54:17.428Z,71.17
2018-01-26T03:56:45.999Z,71.21
2018-01-26T03:59:14.490Z,71.80
2018-01-26T04:01:42.983Z,71.27
2018-01-26T04:04:11.682Z,70.95
2018-01-26T04:06:41.013Z,70.13
2018-01-26T04:09:09.571Z,69.34
2018-01-26T04:11:38.463Z,69.85
2018-01-26T04:14:07.785Z,70.36
2018-01-26T04:16:36.335Z,70.63
2018-01-26T04:19:04.896Z,70.22
2018-01-26T04:21:33.386Z,71.33
2018-01-26T04:24:01.892Z,70.44
2018-01-26T04:26:32.111Z,70.33
2018-01-26T04:29:01.440Z,71.97
2018-01-26T04:31:29.948Z,72.57
2018-01-26T04:33:58.490Z,71.08
2018-01-26T04:36:27.752Z,70.47
2018-01-26T04:38:56.319Z,70.67
2018-01-26T04:41:25.114Z,69.76
2018-01-26T04:43:53.673Z,70.37
2018-01-26T04:46:22.231Z,70.63
2018-01-26T04:48:51.627Z,70.60
2018-01-26T04:51:20.882Z,70.16
2018-01-26T04:53:49.469Z,70.31
2018-01-26T04:56:18.067Z,70.05
2018-01-26T04:58:46.580Z,70.33
2018-01-26T05:01:15.912Z,70.54
2018-01-26T05:03:44.651Z,71.21
2018-01-26T05:06:13.158Z,69.88
2018-01-26T05:08:42.418Z,70.81
2018-01-26T05:11:11.397Z,70.10
2018-01-26T05:13:39.899Z,69.87
2018-01-26T05:16:08.407Z,69.84
2018-01-26T05:18:37.722Z,69.20
2018-01-26T05:21:06.234Z,67.77
2018-01-26T05:23:34.738Z,67.93
2018-01-26T05:26:03.447Z,68.44
2018-01-26T05:28:32.717Z,69.00
2018-01-26T05:31:01.279Z,68.56
2018-01-26T05:33:29.973Z,70.88
2018-01-26T05:35:59.313Z,71.11
2018-01-26T05:38:27.815Z,70.48
2018-01-26T05:40:56.612Z,70.13
2018-01-26T05:43:25.112Z,70.46
2018-01-26T05:45:53.614Z,69.58
2018-01-26T05:48:23.263Z,69.65
2018-01-26T05:50:51.820Z,69.26
2018-01-26T05:53:21.168Z,69.86
2018-01-26T05:55:49.996Z,69.87
2018-01-26T05:58:19.259Z,68.92
2018-01-26T06:00:47.787Z,68.86
2018-01-26T06:03:17.184Z,68.65
2018-01-26T06:05:46.501Z,71.44
2018-01-26T06:08:15.014Z,72.22
2018-01-26T06:10:43.713Z,72.38
2018-01-26T06:13:12.257Z,71.52
2018-01-26T06:15:40.812Z,70.76
2018-01-26T06:18:10.298Z,70.72
2018-01-26T06:20:38.816Z,70.32
2018-01-26T06:23:07.375Z,70.40
2018-01-26T06:25:36.112Z,68.94
2018-01-26T06:28:04.715Z,67.70
2018-01-26T06:30:33.251Z,70.14
2018-01-26T06:33:02.579Z,69.38
2018-01-26T06:35:31.083Z,65.72
2018-01-26T06:37:59.571Z,64.77
2018-01-26T06:40:28.272Z,65.03
2018-01-26T06:42:56.835Z,63.48
2018-01-26T06:45:25.351Z,62.79
2018-01-26T06:47:54.816Z,62.75
2018-01-26T06:50:23.367Z,64.09
2018-01-26T06:52:51.928Z,63.13
2018-01-26T06:55:21.398Z,66.20
2018-01-26T06:57:49.979Z,66.17
2018-01-26T07:00:18.475Z,65.22
2018-01-26T07:02:47.342Z,62.15
2018-01-26T07:05:15.847Z,58.71
2018-01-26T07:07:44.363Z,59.08
2018-01-26T07:10:13.847Z,56.22
2018-01-26T07:12:43.118Z,57.72
2018-01-26T07:15:11.602Z,58.04
2018-01-26T07:17:40.471Z,54.37
2018-01-26T07:20:08.977Z,53.41
2018-01-26T07:22:37.480Z,53.55
2018-01-26T07:25:06.908Z,54.33
2018-01-26T07:27:35.428Z,53.52
2018-01-26T07:30:04.010Z,52.75
2018-01-26T07:32:32.802Z,52.79
2018-01-26T07:35:01.308Z,52.57
2018-01-26T07:37:29.811Z,52.61
2018-01-26T07:39:59.215Z,52.76
2018-01-26T07:42:28.529Z,50.29
2018-01-26T07:44:57.019Z,49.47
2018-01-26T07:47:25.755Z,46.62
2018-01-26T07:49:54.283Z,47.35
2018-01-26T07:52:22.773Z,47.58
2018-01-26T07:54:51.425Z,49.25
2018-01-26T07:57:20.734Z,49.15
2018-01-26T07:59:49.987Z,45.55
2018-01-26T08:02:18.591Z,44.26
2018-01-26T08:04:47.100Z,42.31
2018-01-26T08:07:15.719Z,42.05
2018-01-26T08:09:44.592Z,45.01
2018-01-26T08:12:13.084Z,44.97
2018-01-26T08:14:41.575Z,44.82
2018-01-26T08:17:10.492Z,43.46
2018-01-26T08:19:39.809Z,42.09
2018-01-26T08:22:09.101Z,43.85
2018-01-26T08:24:38.660Z,43.90
2018-01-26T08:27:07.144Z,45.27
2018-01-26T08:29:36.407Z,43.56
2018-01-26T08:32:05.017Z,44.03
2018-01-26T08:34:33.567Z,43.31
2018-01-26T08:37:02.063Z,45.22
2018-01-26T08:39:31.028Z,41.37
2018-01-26T08:41:59.515Z,41.70
2018-01-26T08:44:28.015Z,43.36
2018-01-26T08:46:56.583Z,43.00
2018-01-26T08:49:25.085Z,41.75
2018-01-26T08:51:53.636Z,40.25
2018-01-26T08:54:22.236Z,40.06
2018-01-26T08:56:50.755Z,41.57
2018-01-26T08:59:19.299Z,38.82
2018-01-26T09:01:47.823Z,38.96
2018-01-26T09:04:16.338Z,38.12
2018-01-26T09:06:44.835Z,38.37
2018-01-26T09:09:13.511Z,38.96
2018-01-26T09:11:42.024Z,37.86
2018-01-26T09:14:11.357Z,35.70
2018-01-26T09:16:40.104Z,36.73
2018-01-26T09:19:08.596Z,35.94
2018-01-26T09:21:37.097Z,34.80
2018-01-26T09:24:05.637Z,34.10
2018-01-26T09:26:34.124Z,33.87
2018-01-26T09:29:02.612Z,34.21
2018-01-26T09:31:31.436Z,35.70
2018-01-26T09:34:00.691Z,35.85
2018-01-26T09:36:29.188Z,35.37
2018-01-26T09:38:58.078Z,37.37
2018-01-26T09:41:26.571Z,37.16
2018-01-26T09:43:55.068Z,36.73
2018-01-26T09:46:24.395Z,36.25
2018-01-26T09:48:52.927Z,35.37
2018-01-26T09:51:21.499Z,35.34
2018-01-26T09:53:50.059Z,34.17
2018-01-26T09:56:18.554Z,32.54
2018-01-26T09:58:47.048Z,32.98
2018-01-26T10:01:15.734Z,32.60
2018-01-26T10:03:44.279Z,34.41
2018-01-26T10:06:12.772Z,34.81
2018-01-26T10:08:41.364Z,33.33
2018-01-26T10:11:09.928Z,34.73
2018-01-26T10:13:38.430Z,34.35
2018-01-26T10:16:07.735Z,34.01
2018-01-26T10:18:36.216Z,36.18
2018-01-26T10:21:05.478Z,34.21
2018-01-26T10:23:34.212Z,33.81
2018-01-26T10:26:02.697Z,32.40
2018-01-26T10:28:31.233Z,32.01
2018-01-26T10:31:00.535Z,32.84
2018-01-26T10:33:29.791Z,30.46
2018-01-26T10:35:58.282Z,29.88
2018-01-26T10:38:27.579Z,33.29
2018-01-26T10:40:56.086Z,36.00
2018-01-26T10:43:24.571Z,34.96
2018-01-26T10:45:53.115Z,34.36
2018-01-26T10:48:21.635Z,31.05
2018-01-26T10:50:50.895Z,30.99
2018-01-26T10:53:19.427Z,31.40
2018-01-26T10:55:48.727Z,32.15
2018-01-26T10:58:17.977Z,30.26
2018-01-26T11:00:46.583Z,30.56
2018-01-26T11:03:15.075Z,29.40
2018-01-26T11:05:44.347Z,29.75
2018-01-26T11:08:13.051Z,32.91
2018-01-26T11:10:41.611Z,32.52
2018-01-26T11:13:10.102Z,29.99
2018-01-26T11:15:38.720Z,31.40
2018-01-26T11:18:07.982Z,31.11
2018-01-26T11:20:36.471Z,28.31
2018-01-26T11:23:05.008Z,29.37
2018-01-26T11:25:33.499Z,30.38
2018-01-26T11:28:01.991Z,29.53
2018-01-26T11:30:30.827Z,30.04
2018-01-26T11:33:00.144Z,29.73
2018-01-26T11:35:29.412Z,29.40
2018-01-26T11:37:58.374Z,29.89
2018-01-26T11:40:26.863Z,28.48
2018-01-26T11:42:55.364Z,30.49
2018-01-26T11:45:24.160Z,27.15
2018-01-26T11:47:52.732Z,26.57
2018-01-26T11:50:21.243Z,26.39
2018-01-26T11:52:50.699Z,26.36
2018-01-26T11:55:19.188Z,26.21
2018-01-26T11:57:47.740Z,28.75
2018-01-26T12:00:16.603Z,27.86
2018-01-26T12:02:45.912Z,28.82
2018-01-26T12:05:15.162Z,27.89
2018-01-26T12:07:43.835Z,27.51
2018-01-26T12:10:12.319Z,29.99
2018-01-26T12:12:41.583Z,28.36
2018-01-26T12:15:10.141Z,29.36
2018-01-26T12:17:39.392Z,28.80
2018-01-26T12:20:07.936Z,28.96
2018-01-26T12:22:37.270Z,29.59
2018-01-26T12:25:05.787Z,29.61
2018-01-26T12:27:34.304Z,28.04
2018-01-26T12:30:03.988Z,28.27
2018-01-26T12:32:33.260Z,28.63
2018-01-26T12:35:01.743Z,31.78
2018-01-26T12:37:31.043Z,30.24
2018-01-26T12:39:59.547Z,30.74
2018-01-26T12:42:28.103Z,30.80
2018-01-26T12:44:56.695Z,28.11
2018-01-26T12:47:25.178Z,28.60
2018-01-26T12:49:53.656Z,26.94
2018-01-26T12:52:22.363Z,27.72
2018-01-26T12:54:50.842Z,28.63
2018-01-26T12:57:19.348Z,27.67
2018-01-26T12:59:48.823Z,27.05
2018-01-26T13:02:17.315Z,27.78
2018-01-26T13:04:46.603Z,28.78
2018-01-26T13:07:15.163Z,28.43
2018-01-26T13:09:43.647Z,27.85
2018-01-26T13:12:12.128Z,28.26
2018-01-26T13:14:40.913Z,27.77
2018-01-26T13:17:09.394Z,29.35
2018-01-26T13:19:37.944Z,31.17
2018-01-26T13:22:06.479Z,30.56
2018-01-26T13:24:35.038Z,30.82
2018-01-26T13:27:03.531Z,29.47
2018-01-26T13:29:32.152Z,30.56
2018-01-26T13:32:01.408Z,28.94
2018-01-26T13:34:30.725Z,29.39
2018-01-26T13:36:59.484Z,30.29
2018-01-26T13:39:27.968Z,31.88
2018-01-26T13:41:56.454Z,29.84
2018-01-26T13:44:25.044Z,29.01
2018-01-26T13:46:53.524Z,30.19
2018-01-26T13:49:22.075Z,31.39
2018-01-26T13:51:50.831Z,31.74
2018-01-26T13:54:20.087Z,33.21
2018-01-26T13:56:48.564Z,31.87
2018-01-26T13:59:17.327Z,32.04
2018-01-26T14:01:45.816Z,32.01
2018-01-26T14:04:14.303Z,30.58
2018-01-26T14:06:43.092Z,31.53
2018-01-26T14:09:11.580Z,29.03
2018-01-26T14:11:40.070Z,28.98
2018-01-26T14:14:08.603Z,31.09
2018-01-26T14:16:37.855Z,32.08
2018-01-26T14:19:06.402Z,32.50
2018-01-26T14:21:35.156Z,31.18
2018-01-26T14:24:03.643Z,31.93
2018-01-26T14:26:33.644Z,33.62
2018-01-26T14:29:02.197Z,32.52
2018-01-26T14:31:30.711Z,34.36
2018-01-26T14:33:59.265Z,36.55
2018-01-26T14:36:27.831Z,36.37
2018-01-26T14:38:56.326Z,38.57
2018-01-26T14:41:24.871Z,40.26
2018-01-26T14:43:54.328Z,37.55
2018-01-26T14:46:22.814Z,38.50
2018-01-26T14:48:51.307Z,40.47
2018-01-26T14:51:20.066Z,43.61
2018-01-26T14:53:48.557Z,44.26
2018-01-26T14:56:17.051Z,43.99
2018-01-26T14:58:45.607Z,45.96
2018-01-26T15:01:14.087Z,46.21
2018-01-26T15:03:42.579Z,48.47
2018-01-26T15:06:11.115Z,46.84
2018-01-26T15:08:39.604Z,47.29
2018-01-26T15:11:08.153Z,47.90
2018-01-26T15:13:36.700Z,48.51
2018-01-26T15:16:05.190Z,48.05
2018-01-26T15:18:33.700Z,49.51
2018-01-26T15:21:02.299Z,47.97
2018-01-26T15:23:30.869Z,46.94
2018-01-26T15:25:59.360Z,46.91
2018-01-26T15:28:28.128Z,46.76
2018-01-26T15:30:57.415Z,46.67
2018-01-26T15:33:26.793Z,46.64
2018-01-26T15:35:56.094Z,46.14
2018-01-26T15:38:24.599Z,46.76
2018-01-26T15:40:53.884Z,47.09
2018-01-26T15:43:22.480Z,47.53
2018-01-26T15:45:51.032Z,48.04
2018-01-26T15:48:19.518Z,49.00
2018-01-26T15:50:48.047Z,49.37
2018-01-26T15:53:17.328Z,50.30
2018-01-26T15:55:46.647Z,52.56
2018-01-26T15:58:16.087Z,53.10
2018-01-26T16:00:44.597Z,53.49
2018-01-26T16:03:13.575Z,54.15
2018-01-26T16:05:42.123Z,53.80
2018-01-26T16:08:10.656Z,53.83
2018-01-26T16:10:39.176Z,54.77
2018-01-26T16:13:07.934Z,55.23
2018-01-26T16:15:36.511Z,55.47
2018-01-26T16:18:05.022Z,55.45
2018-01-26T16:20:34.833Z,55.40
2018-01-26T16:23:03.329Z,55.27
2018-01-26T16:25:31.856Z,55.52
2018-01-26T16:28:00.408Z,55.54
2018-01-26T16:30:29.789Z,55.78
2018-01-26T16:32:58.372Z,55.69
2018-01-26T16:35:27.679Z,55.43
2018-01-26T16:37:56.167Z,55.19
2018-01-26T16:40:24.679Z,55.05
2018-01-26T16:42:53.323Z,55.00
2018-01-26T16:45:21.886Z,54.77
2018-01-26T16:47:50.397Z,54.70
2018-01-26T16:50:20.110Z,54.76
2018-01-26T16:52:50.463Z,54.40
2018-01-26T16:55:20.008Z,54.24
2018-01-26T16:57:48.519Z,54.03
2018-01-26T17:00:17.139Z,54.13
2018-01-26T17:02:45.687Z,54.21
2018-01-26T17:05:14.188Z,54.08
2018-01-26T17:07:43.457Z,53.81
2018-01-26T17:10:12.019Z,53.90
2018-01-26T17:12:40.584Z,53.30
2018-01-26T17:15:09.111Z,53.74
2018-01-26T17:17:38.589Z,53.18
2018-01-26T17:20:07.083Z,53.08
2018-01-26T17:22:35.661Z,53.54
2018-01-26T17:25:04.207Z,54.43
2018-01-26T17:27:32.702Z,55.11
2018-01-26T17:30:01.211Z,55.90
2018-01-26T17:32:30.198Z,56.27
2018-01-26T17:34:58.707Z,56.48
2018-01-26T17:37:27.211Z,56.25
2018-01-26T17:39:55.791Z,55.73
2018-01-26T17:42:24.309Z,54.93
2018-01-26T17:44:52.839Z,54.88
2018-01-26T17:47:21.488Z,55.14
2018-01-26T17:49:50.043Z,55.43
2018-01-26T17:52:18.542Z,55.96
2018-01-26T17:54:47.139Z,56.32
2018-01-26T17:57:15.863Z,56.62
2018-01-26T17:59:44.449Z,56.43
2018-01-26T18:02:13.311Z,57.01
2018-01-26T18:04:42.611Z,57.17
2018-01-26T18:07:11.974Z,57.31
2018-01-26T18:09:41.447Z,57.44
2018-01-26T18:12:09.967Z,57.71
2018-01-26T18:14:38.468Z,58.08
2018-01-26T18:17:07.135Z,57.94
2018-01-26T18:19:35.765Z,57.67
2018-01-26T18:22:05.029Z,57.59
2018-01-26T18:24:33.733Z,57.19
2018-01-26T18:27:03.056Z,57.89
2018-01-26T18:29:31.555Z,57.89
2018-01-26T18:32:00.311Z,58.05
2018-01-26T18:34:29.671Z,58.33
2018-01-26T18:36:58.175Z,58.58
2018-01-26T18:39:26.813Z,58.93
2018-01-26T18:41:55.387Z,59.46
2018-01-26T18:44:23.903Z,59.90
2018-01-26T18:46:53.483Z,60.30
2018-01-26T18:49:22.050Z,60.84
2018-01-26T18:51:50.767Z,61.07
2018-01-26T18:54:19.483Z,61.17
2018-01-26T18:56:48.066Z,61.58
2018-01-26T18:59:17.329Z,62.07
2018-01-26T19:01:46.084Z,62.10
2018-01-26T19:04:14.591Z,62.44
2018-01-26T19:06:43.942Z,62.94
2018-01-26T19:09:12.635Z,62.99
2018-01-26T19:11:41.934Z,63.10
2018-01-26T19:14:10.440Z,63.03
2018-01-26T19:16:39.048Z,62.92
2018-01-26T19:19:08.307Z,62.36
2018-01-26T19:21:36.844Z,62.29
2018-01-26T19:24:05.580Z,62.40
2018-01-26T19:26:34.839Z,62.99
2018-01-26T19:29:03.348Z,63.70
2018-01-26T19:31:32.244Z,64.16
2018-01-26T19:34:01.736Z,65.98
2018-01-26T19:36:30.239Z,65.36
2018-01-26T19:38:58.785Z,65.13
2018-01-26T19:41:27.284Z,66.62
2018-01-26T19:43:55.800Z,66.74
2018-01-26T19:46:24.344Z,67.18
2018-01-26T19:48:52.832Z,67.35
2018-01-26T19:51:21.418Z,67.56
2018-01-26T19:53:50.372Z,67.73
2018-01-26T19:56:18.990Z,67.50
2018-01-26T19:58:47.546Z,67.51
2018-01-26T20:01:17.018Z,67.66
2018-01-26T20:04:04.335Z,66.82
2018-01-26T20:06:55.991Z,66.33
2018-01-26T20:09:26.111Z,65.75
2018-01-26T20:12:00.196Z,65.57
2018-01-26T20:14:28.687Z,65.60
2018-01-26T20:16:57.195Z,68.54
2018-01-26T20:19:26.503Z,68.28
2018-01-26T20:21:55.854Z,67.04
2018-01-26T20:24:24.352Z,68.05
2018-01-26T20:26:52.965Z,69.84
2018-01-26T20:29:22.284Z,71.59
2018-01-26T20:31:51.544Z,70.17
2018-01-26T20:34:20.150Z,70.30
2018-01-26T20:36:49.412Z,70.61
2018-01-26T20:39:17.907Z,72.12
2018-01-26T20:41:46.525Z,71.55
2018-01-26T20:44:15.091Z,71.53
2018-01-26T20:46:44.411Z,71.97
2018-01-26T20:49:13.723Z,71.47
2018-01-26T20:51:42.271Z,72.76
2018-01-26T20:54:10.772Z,73.13
2018-01-26T20:56:40.276Z,73.38
2018-01-26T20:59:09.537Z,72.79
2018-01-26T21:01:38.795Z,73.72
2018-01-26T21:04:07.501Z,72.89
2018-01-26T21:06:35.991Z,73.04
2018-01-26T21:09:04.628Z,72.51
2018-01-26T21:11:34.096Z,72.53
2018-01-26T21:14:02.668Z,72.14
2018-01-26T21:16:31.991Z,72.73
2018-01-26T21:19:00.640Z,71.65
2018-01-26T21:21:29.196Z,72.29
2018-01-26T21:23:57.767Z,72.00
2018-01-26T21:26:27.188Z,72.50
2018-01-26T21:28:55.747Z,71.19
2018-01-26T21:31:25.010Z,70.87
2018-01-26T21:33:53.711Z,70.68
2018-01-26T21:36:22.209Z,71.05
2018-01-26T21:38:51.528Z,70.61
2018-01-26T21:41:20.343Z,70.42
2018-01-26T21:43:48.852Z,70.74
2018-01-26T21:46:17.352Z,71.41
2018-01-26T21:48:45.902Z,71.01
2018-01-26T21:51:14.395Z,71.45
2018-01-26T21:53:42.888Z,71.46
2018-01-26T21:56:11.531Z,71.40
2018-01-26T21:58:40.083Z,71.83
2018-01-26T22:01:09.343Z,71.40
2018-01-26T22:03:38.228Z,71.87
2018-01-26T22:06:12.084Z,71.32
2018-01-26T22:08:41.744Z,71.65
2018-01-26T22:11:10.320Z,71.35
2018-01-26T22:13:38.819Z,72.14
2018-01-26T22:16:07.451Z,72.13
2018-01-26T22:18:36.023Z,72.17
2018-01-26T22:21:04.599Z,72.95
2018-01-26T22:23:33.907Z,73.18
2018-01-26T22:26:03.175Z,72.97
2018-01-26T22:28:31.684Z,72.86
2018-01-26T22:31:01.284Z,72.57
2018-01-26T22:33:30.624Z,72.29
2018-01-26T22:35:59.122Z,72.28
2018-01-26T22:38:27.719Z,72.02
2018-01-26T22:40:56.223Z,71.31
2018-01-26T22:43:25.491Z,70.24
2018-01-26T22:45:55.063Z,70.95
2018-01-26T22:48:23.564Z,70.81
2018-01-26T22:50:52.130Z,71.60
2018-01-26T22:53:20.991Z,72.08
2018-01-26T22:55:50.324Z,71.54
2018-01-26T22:58:18.816Z,71.37
2018-01-26T23:00:47.451Z,71.45
2018-01-26T23:03:28.580Z,71.34
2018-01-26T23:05:57.219Z,71.34
2018-01-26T23:08:26.485Z,71.35
2018-01-26T23:10:55.069Z,71.28
2018-01-26T23:13:24.603Z,71.32
2018-01-26T23:15:54.607Z,70.92
2018-01-26T23:18:23.101Z,70.98
2018-01-26T23:20:51.991Z,70.66
2018-01-26T23:23:20.543Z,70.65
2018-01-26T23:25:49.091Z,72.87
2018-01-26T23:28:17.631Z,72.49
2018-01-26T23:30:47.724Z,71.96
2018-01-26T23:33:16.218Z,71.96
2018-01-26T23:35:44.928Z,72.84
2018-01-26T23:38:14.243Z,72.27
2018-01-26T23:40:43.507Z,71.55
2018-01-26T23:43:12.205Z,71.68
2018-01-26T23:45:40.711Z,70.61
2018-01-26T23:48:09.970Z,71.90
2018-01-26T23:50:38.510Z,72.70
2018-01-26T23:53:07.003Z,72.71
2018-01-26T23:55:35.491Z,72.83
2018-01-26T23:58:04.029Z,73.11
